Accueil
METAR-TAF:

METAR-TAF

Aéroports :

Brescia Ghedi, Italie

latitude: 45-25N, longitude: 010-17E, altitude: 102 m

Observation

Le bulletin a été fait il y a 1 heure et 7 minutes, à 04:55 UTC
Vent 3 kt de nord/nord-ouest
Température 0°C
Humidité 93%
Pression 1024 hPa
Visibilité: 3000 m
brume

METAR: LIPL 260455Z 34003KT 3000 BR NSC 00/M01 Q1024 RMK SKC VIS MIN 3000 WIND THR31 34001KT WIND THR13 34003KT YLO

Heure: 07:02 (06:02 UTC)

Prévision

Le bulletin a été fait il y a 1 heure et 2 minutes, à 05:00 UTC
Prévision valable du 26 à 06 UTC au 26 à 15 UTC
Vent 3 kt de ouest/nord-ouest
Visibilité: 3000 m
brume
Temporairement
du 26 à 06 UTC au 26 à 07 UTC
Visibilité: 1500 m
Evoluant progressivement
du 26 à 06 UTC au 26 à 09 UTC
Visibilité: 5000 m
brume

TAF: LIPL 260500Z 2606/2615 30003KT 3000 BR NSC TEMPO 2606/2607 1500 BECMG 2606/2609 5000 BR

Observations et prévisions météorologiques de plus de 4000 aéroports (messages METAR et TAF).

Les stations disponibles sont représentées par des disques jaunes et rouges sur la carte.

Passer la souris dessus pour voir le nom de la station.

Cliquer dessus pour voir les observations et prévisions météorologiques.

Pour changer de carte: cliquez sur les boutons verts avec une croix noire pour zoomer, sur le bouton vert avec un tiret pour effectuer un zoom arrière, ou sur les flèches vertes pour les cartes adjacentes.


METAR-TAF: